sensor_id;sensor_type;location;lat;lon;timestamp;temperature;humidity
39033;DHT22;24794;51.982;5.878;2023-04-29T00:00:14;10.90;99.90
39033;DHT22;24794;51.982;5.878;2023-04-29T00:01:15;10.90;99.90
39033;DHT22;24794;51.982;5.878;2023-04-29T00:02:16;10.90;99.90
39033;DHT22;24794;51.982;5.878;2023-04-29T00:03:16;10.90;99.90
39033;DHT22;24794;51.982;5.878;2023-04-29T00:04:18;10.90;99.90
39033;DHT22;24794;51.982;5.878;2023-04-29T00:05:19;10.90;99.90
39033;DHT22;24794;51.982;5.878;2023-04-29T00:06:19;10.90;99.90
39033;DHT22;24794;51.982;5.878;2023-04-29T00:07:20;10.80;99.90
39033;DHT22;24794;51.982;5.878;2023-04-29T00:08:21;10.90;99.90
39033;DHT22;24794;51.982;5.878;2023-04-29T00:09:22;10.90;99.90
39033;DHT22;24794;51.982;5.878;2023-04-29T00:10:22;10.90;99.90
39033;DHT22;24794;51.982;5.878;2023-04-29T00:11:23;10.90;99.90
39033;DHT22;24794;51.982;5.878;2023-04-29T00:12:23;10.90;99.90
39033;DHT22;24794;51.982;5.878;2023-04-29T00:13:24;10.90;99.90
39033;DHT22;24794;51.982;5.878;2023-04-29T00:14:25;10.90;99.90
39033;DHT22;24794;51.982;5.878;2023-04-29T00:15:26;10.90;99.90
39033;DHT22;24794;51.982;5.878;2023-04-29T00:16:26;10.90;99.90
39033;DHT22;24794;51.982;5.878;2023-04-29T00:17:27;10.90;99.90
39033;DHT22;24794;51.982;5.878;2023-04-29T00:18:28;10.90;99.90
39033;DHT22;24794;51.982;5.878;2023-04-29T00:19:28;10.80;99.90
39033;DHT22;24794;51.982;5.878;2023-04-29T00:20:29;10.80;99.90
39033;DHT22;24794;51.982;5.878;2023-04-29T00:21:29;10.90;99.90
39033;DHT22;24794;51.982;5.878;2023-04-29T00:22:31;10.80;99.90
39033;DHT22;24794;51.982;5.878;2023-04-29T00:23:32;10.80;99.90
39033;DHT22;24794;51.982;5.878;2023-04-29T00:24:33;10.80;99.90
39033;DHT22;24794;51.982;5.878;2023-04-29T00:25:33;10.80;99.90
39033;DHT22;24794;51.982;5.878;2023-04-29T00:26:34;10.70;99.90
39033;DHT22;24794;51.982;5.878;2023-04-29T00:27:35;10.70;99.90
39033;DHT22;24794;51.982;5.878;2023-04-29T00:28:35;10.80;99.90
39033;DHT22;24794;51.982;5.878;2023-04-29T00:29:36;10.80;99.90
39033;DHT22;24794;51.982;5.878;2023-04-29T00:30:36;10.80;99.90
39033;DHT22;24794;51.982;5.878;2023-04-29T00:31:37;10.80;99.90
39033;DHT22;24794;51.982;5.878;2023-04-29T00:32:38;10.80;99.90
39033;DHT22;24794;51.982;5.878;2023-04-29T00:33:39;10.70;99.90
39033;DHT22;24794;51.982;5.878;2023-04-29T00:34:40;10.70;99.90
39033;DHT22;24794;51.982;5.878;2023-04-29T00:35:40;10.70;99.90
39033;DHT22;24794;51.982;5.878;2023-04-29T00:36:41;10.70;99.90
39033;DHT22;24794;51.982;5.878;2023-04-29T00:37:41;10.70;99.90
39033;DHT22;24794;51.982;5.878;2023-04-29T00:38:42;10.70;99.90
39033;DHT22;24794;51.982;5.878;2023-04-29T00:39:42;10.60;99.90
39033;DHT22;24794;51.982;5.878;2023-04-29T00:40:43;10.70;99.90
39033;DHT22;24794;51.982;5.878;2023-04-29T00:41:44;10.70;99.90
39033;DHT22;24794;51.982;5.878;2023-04-29T00:42:44;10.70;99.90
39033;DHT22;24794;51.982;5.878;2023-04-29T00:43:45;10.70;99.90
39033;DHT22;24794;51.982;5.878;2023-04-29T00:44:46;10.70;99.90
39033;DHT22;24794;51.982;5.878;2023-04-29T00:45:46;10.70;99.90
39033;DHT22;24794;51.982;5.878;2023-04-29T00:46:47;10.70;99.90
39033;DHT22;24794;51.982;5.878;2023-04-29T00:47:47;10.70;99.90
39033;DHT22;24794;51.982;5.878;2023-04-29T00:48:48;10.70;99.90
39033;DHT22;24794;51.982;5.878;2023-04-29T00:49:49;10.70;99.90
39033;DHT22;24794;51.982;5.878;2023-04-29T00:50:49;10.70;99.90
39033;DHT22;24794;51.982;5.878;2023-04-29T00:51:50;10.70;99.90
39033;DHT22;24794;51.982;5.878;2023-04-29T00:52:51;10.70;99.90
39033;DHT22;24794;51.982;5.878;2023-04-29T00:53:52;10.70;99.90
39033;DHT22;24794;51.982;5.878;2023-04-29T00:54:53;10.70;99.90
39033;DHT22;24794;51.982;5.878;2023-04-29T00:55:55;10.70;99.90
39033;DHT22;24794;51.982;5.878;2023-04-29T00:56:56;10.70;99.90
39033;DHT22;24794;51.982;5.878;2023-04-29T00:57:58;10.70;99.90
39033;DHT22;24794;51.982;5.878;2023-04-29T00:59:01;10.70;99.90
39033;DHT22;24794;51.982;5.878;2023-04-29T01:00:02;10.70;99.90
39033;DHT22;24794;51.982;5.878;2023-04-29T01:01:04;10.70;99.90
39033;DHT22;24794;51.982;5.878;2023-04-29T01:02:05;10.70;99.90
39033;DHT22;24794;51.982;5.878;2023-04-29T01:03:07;10.70;99.90
39033;DHT22;24794;51.982;5.878;2023-04-29T01:04:08;10.60;99.90
39033;DHT22;24794;51.982;5.878;2023-04-29T01:05:09;10.60;99.90
39033;DHT22;24794;51.982;5.878;2023-04-29T01:08:09;10.60;99.90
39033;DHT22;24794;51.982;5.878;2023-04-29T01:09:16;10.60;99.90
39033;DHT22;24794;51.982;5.878;2023-04-29T01:10:48;10.60;99.90
39033;DHT22;24794;51.982;5.878;2023-04-29T01:12:00;10.60;99.90
39033;DHT22;24794;51.982;5.878;2023-04-29T01:13:13;10.60;99.90
39033;DHT22;24794;51.982;5.878;2023-04-29T01:14:17;10.60;99.90
39033;DHT22;24794;51.982;5.878;2023-04-29T01:17:30;10.60;99.90
39033;DHT22;24794;51.982;5.878;2023-04-29T01:18:41;10.60;99.90
39033;DHT22;24794;51.982;5.878;2023-04-29T01:19:46;10.60;99.90
39033;DHT22;24794;51.982;5.878;2023-04-29T01:20:47;10.70;99.90
39033;DHT22;24794;51.982;5.878;2023-04-29T01:21:48;10.70;99.90
39033;DHT22;24794;51.982;5.878;2023-04-29T01:22:49;10.60;99.90
39033;DHT22;24794;51.982;5.878;2023-04-29T01:23:50;10.70;99.90
39033;DHT22;24794;51.982;5.878;2023-04-29T01:24:55;10.60;99.90
39033;DHT22;24794;51.982;5.878;2023-04-29T01:25:56;10.70;99.90
39033;DHT22;24794;51.982;5.878;2023-04-29T01:31:24;10.70;99.90
39033;DHT22;24794;51.982;5.878;2023-04-29T01:34:13;10.70;99.90
39033;DHT22;24794;51.982;5.878;2023-04-29T01:35:21;10.70;99.90
39033;DHT22;24794;51.982;5.878;2023-04-29T01:37:51;10.80;99.90
39033;DHT22;24794;51.982;5.878;2023-04-29T01:39:08;10.80;99.90
39033;DHT22;24794;51.982;5.878;2023-04-29T01:40:14;10.90;99.90
39033;DHT22;24794;51.982;5.878;2023-04-29T01:41:22;10.90;99.90
39033;DHT22;24794;51.982;5.878;2023-04-29T01:42:32;10.90;99.90
39033;DHT22;24794;51.982;5.878;2023-04-29T01:43:36;10.90;99.90
39033;DHT22;24794;51.982;5.878;2023-04-29T01:44:37;10.90;99.90
39033;DHT22;24794;51.982;5.878;2023-04-29T01:45:39;10.90;99.90
39033;DHT22;24794;51.982;5.878;2023-04-29T01:46:50;10.90;99.90
39033;DHT22;24794;51.982;5.878;2023-04-29T01:47:52;10.90;99.90
39033;DHT22;24794;51.982;5.878;2023-04-29T01:48:55;10.90;99.90
39033;DHT22;24794;51.982;5.878;2023-04-29T01:49:55;10.80;99.90
39033;DHT22;24794;51.982;5.878;2023-04-29T01:50:56;10.80;99.90
39033;DHT22;24794;51.982;5.878;2023-04-29T01:51:56;10.80;99.90
39033;DHT22;24794;51.982;5.878;2023-04-29T01:52:57;10.80;99.90
39033;DHT22;24794;51.982;5.878;2023-04-29T01:53:58;10.80;99.90
39033;DHT22;24794;51.982;5.878;2023-04-29T01:54:58;10.80;99.90
39033;DHT22;24794;51.982;5.878;2023-04-29T01:55:59;10.80;99.90
39033;DHT22;24794;51.982;5.878;2023-04-29T01:56:59;10.90;99.90
39033;DHT22;24794;51.982;5.878;2023-04-29T01:58:00;10.90;99.90
39033;DHT22;24794;51.982;5.878;2023-04-29T01:59:00;10.90;99.90
39033;DHT22;24794;51.982;5.878;2023-04-29T02:00:01;10.90;99.90
39033;DHT22;24794;51.982;5.878;2023-04-29T02:01:01;10.90;99.90
39033;DHT22;24794;51.982;5.878;2023-04-29T02:02:02;10.90;99.90
39033;DHT22;24794;51.982;5.878;2023-04-29T02:03:03;10.90;99.90
39033;DHT22;24794;51.982;5.878;2023-04-29T02:04:04;10.90;99.90
39033;DHT22;24794;51.982;5.878;2023-04-29T02:05:05;10.90;99.90
39033;DHT22;24794;51.982;5.878;2023-04-29T02:06:05;10.90;99.90
39033;DHT22;24794;51.982;5.878;2023-04-29T02:07:06;10.90;99.90
39033;DHT22;24794;51.982;5.878;2023-04-29T02:08:06;10.90;99.90
39033;DHT22;24794;51.982;5.878;2023-04-29T02:09:07;10.90;99.90
39033;DHT22;24794;51.982;5.878;2023-04-29T02:10:08;10.90;99.90
39033;DHT22;24794;51.982;5.878;2023-04-29T02:11:08;10.90;99.90
39033;DHT22;24794;51.982;5.878;2023-04-29T02:12:09;10.90;99.90
39033;DHT22;24794;51.982;5.878;2023-04-29T02:13:09;10.90;99.90
39033;DHT22;24794;51.982;5.878;2023-04-29T02:14:11;10.90;99.90
39033;DHT22;24794;51.982;5.878;2023-04-29T02:15:12;10.90;99.90
39033;DHT22;24794;51.982;5.878;2023-04-29T02:16:13;10.90;99.90
39033;DHT22;24794;51.982;5.878;2023-04-29T02:17:14;10.90;99.90
39033;DHT22;24794;51.982;5.878;2023-04-29T02:18:15;10.90;99.90
39033;DHT22;24794;51.982;5.878;2023-04-29T02:19:15;10.90;99.90
39033;DHT22;24794;51.982;5.878;2023-04-29T02:20:16;11.00;99.90
39033;DHT22;24794;51.982;5.878;2023-04-29T02:21:16;10.90;99.90
39033;DHT22;24794;51.982;5.878;2023-04-29T02:22:17;11.00;99.90
39033;DHT22;24794;51.982;5.878;2023-04-29T02:23:18;11.00;99.90
39033;DHT22;24794;51.982;5.878;2023-04-29T02:24:18;11.00;99.90
39033;DHT22;24794;51.982;5.878;2023-04-29T02:25:19;11.10;99.90
39033;DHT22;24794;51.982;5.878;2023-04-29T02:26:19;11.10;99.90
39033;DHT22;24794;51.982;5.878;2023-04-29T02:27:20;11.10;99.90
39033;DHT22;24794;51.982;5.878;2023-04-29T02:28:22;11.10;99.90
39033;DHT22;24794;51.982;5.878;2023-04-29T02:29:25;11.10;99.90
39033;DHT22;24794;51.982;5.878;2023-04-29T02:30:28;11.10;99.90
39033;DHT22;24794;51.982;5.878;2023-04-29T02:31:30;11.10;99.90
39033;DHT22;24794;51.982;5.878;2023-04-29T02:32:30;11.10;99.90
39033;DHT22;24794;51.982;5.878;2023-04-29T02:33:32;11.10;99.90
39033;DHT22;24794;51.982;5.878;2023-04-29T02:34:32;11.00;99.90
39033;DHT22;24794;51.982;5.878;2023-04-29T02:35:33;11.00;99.90
39033;DHT22;24794;51.982;5.878;2023-04-29T02:36:34;11.00;99.90
39033;DHT22;24794;51.982;5.878;2023-04-29T02:37:35;10.90;99.90
39033;DHT22;24794;51.982;5.878;2023-04-29T02:38:35;10.90;99.90
39033;DHT22;24794;51.982;5.878;2023-04-29T02:39:36;10.90;99.90
39033;DHT22;24794;51.982;5.878;2023-04-29T02:40:43;10.90;99.90
39033;DHT22;24794;51.982;5.878;2023-04-29T02:41:44;10.90;99.90
39033;DHT22;24794;51.982;5.878;2023-04-29T02:42:44;10.90;99.90
39033;DHT22;24794;51.982;5.878;2023-04-29T02:43:45;10.90;99.90
39033;DHT22;24794;51.982;5.878;2023-04-29T02:44:46;10.90;99.90
39033;DHT22;24794;51.982;5.878;2023-04-29T02:45:46;10.90;99.90
39033;DHT22;24794;51.982;5.878;2023-04-29T02:46:47;10.90;99.90
39033;DHT22;24794;51.982;5.878;2023-04-29T02:47:47;10.90;99.90
39033;DHT22;24794;51.982;5.878;2023-04-29T02:48:48;10.90;99.90
39033;DHT22;24794;51.982;5.878;2023-04-29T02:49:48;10.90;99.90
39033;DHT22;24794;51.982;5.878;2023-04-29T02:50:49;10.90;99.90
39033;DHT22;24794;51.982;5.878;2023-04-29T02:51:50;10.80;99.90
39033;DHT22;24794;51.982;5.878;2023-04-29T02:52:50;10.90;99.90
39033;DHT22;24794;51.982;5.878;2023-04-29T02:53:51;10.90;99.90
39033;DHT22;24794;51.982;5.878;2023-04-29T02:54:51;10.90;99.90
39033;DHT22;24794;51.982;5.878;2023-04-29T02:55:52;10.80;99.90
39033;DHT22;24794;51.982;5.878;2023-04-29T02:56:52;10.90;99.90
39033;DHT22;24794;51.982;5.878;2023-04-29T02:57:53;10.80;99.90
39033;DHT22;24794;51.982;5.878;2023-04-29T02:58:53;10.80;99.90
39033;DHT22;24794;51.982;5.878;2023-04-29T02:59:54;10.80;99.90
39033;DHT22;24794;51.982;5.878;2023-04-29T03:00:54;10.80;99.90
39033;DHT22;24794;51.982;5.878;2023-04-29T03:01:55;10.80;99.90
39033;DHT22;24794;51.982;5.878;2023-04-29T03:02:56;10.80;99.90
39033;DHT22;24794;51.982;5.878;2023-04-29T03:03:56;10.80;99.90
39033;DHT22;24794;51.982;5.878;2023-04-29T03:04:57;10.80;99.90
39033;DHT22;24794;51.982;5.878;2023-04-29T03:05:58;10.80;99.90
39033;DHT22;24794;51.982;5.878;2023-04-29T03:06:58;10.80;99.90
39033;DHT22;24794;51.982;5.878;2023-04-29T03:07:59;10.90;99.90
39033;DHT22;24794;51.982;5.878;2023-04-29T03:08:59;10.90;99.90
39033;DHT22;24794;51.982;5.878;2023-04-29T03:10:00;10.90;99.90
39033;DHT22;24794;51.982;5.878;2023-04-29T03:11:00;10.90;99.90
39033;DHT22;24794;51.982;5.878;2023-04-29T03:12:01;10.90;99.90
39033;DHT22;24794;51.982;5.878;2023-04-29T03:13:02;10.90;99.90
39033;DHT22;24794;51.982;5.878;2023-04-29T03:14:03;10.90;99.90
39033;DHT22;24794;51.982;5.878;2023-04-29T03:15:07;10.90;99.90
39033;DHT22;24794;51.982;5.878;2023-04-29T03:16:09;10.90;99.90
39033;DHT22;24794;51.982;5.878;2023-04-29T03:17:10;10.90;99.90
39033;DHT22;24794;51.982;5.878;2023-04-29T03:18:11;11.00;99.90
39033;DHT22;24794;51.982;5.878;2023-04-29T03:19:12;11.00;99.90
39033;DHT22;24794;51.982;5.878;2023-04-29T03:20:12;11.00;99.90
39033;DHT22;24794;51.982;5.878;2023-04-29T03:21:13;11.00;99.90
39033;DHT22;24794;51.982;5.878;2023-04-29T03:22:13;11.00;99.90
39033;DHT22;24794;51.982;5.878;2023-04-29T03:23:14;11.00;99.90
39033;DHT22;24794;51.982;5.878;2023-04-29T03:24:15;11.00;99.90
39033;DHT22;24794;51.982;5.878;2023-04-29T03:25:15;11.00;99.90
39033;DHT22;24794;51.982;5.878;2023-04-29T03:26:16;11.00;99.90
39033;DHT22;24794;51.982;5.878;2023-04-29T03:27:17;11.00;99.90
39033;DHT22;24794;51.982;5.878;2023-04-29T03:28:19;11.00;99.90
39033;DHT22;24794;51.982;5.878;2023-04-29T03:29:19;11.00;99.90
39033;DHT22;24794;51.982;5.878;2023-04-29T03:30:20;11.00;99.90
39033;DHT22;24794;51.982;5.878;2023-04-29T03:31:20;11.00;99.90
39033;DHT22;24794;51.982;5.878;2023-04-29T03:32:22;11.00;99.90
39033;DHT22;24794;51.982;5.878;2023-04-29T03:33:23;11.00;99.90
39033;DHT22;24794;51.982;5.878;2023-04-29T03:34:24;11.00;99.90
39033;DHT22;24794;51.982;5.878;2023-04-29T03:35:24;11.00;99.90
39033;DHT22;24794;51.982;5.878;2023-04-29T03:36:25;11.00;99.90
39033;DHT22;24794;51.982;5.878;2023-04-29T03:37:25;11.00;99.90
39033;DHT22;24794;51.982;5.878;2023-04-29T03:38:26;11.00;99.90
39033;DHT22;24794;51.982;5.878;2023-04-29T03:39:26;11.00;99.90
39033;DHT22;24794;51.982;5.878;2023-04-29T03:40:31;11.00;99.90
39033;DHT22;24794;51.982;5.878;2023-04-29T03:41:32;11.00;99.90
39033;DHT22;24794;51.982;5.878;2023-04-29T03:42:32;11.00;99.90
39033;DHT22;24794;51.982;5.878;2023-04-29T03:43:33;11.00;99.90
39033;DHT22;24794;51.982;5.878;2023-04-29T03:44:33;11.00;99.90
39033;DHT22;24794;51.982;5.878;2023-04-29T03:45:34;11.00;99.90
39033;DHT22;24794;51.982;5.878;2023-04-29T03:46:34;11.00;99.90
39033;DHT22;24794;51.982;5.878;2023-04-29T03:47:35;11.00;99.90
39033;DHT22;24794;51.982;5.878;2023-04-29T03:48:35;11.00;99.90
39033;DHT22;24794;51.982;5.878;2023-04-29T03:49:37;11.00;99.90
39033;DHT22;24794;51.982;5.878;2023-04-29T03:50:37;11.00;99.90
39033;DHT22;24794;51.982;5.878;2023-04-29T03:51:38;10.90;99.90
39033;DHT22;24794;51.982;5.878;2023-04-29T03:52:39;11.00;99.90
39033;DHT22;24794;51.982;5.878;2023-04-29T03:53:39;11.00;99.90
39033;DHT22;24794;51.982;5.878;2023-04-29T03:54:40;11.00;99.90
39033;DHT22;24794;51.982;5.878;2023-04-29T03:55:41;11.00;99.90
39033;DHT22;24794;51.982;5.878;2023-04-29T03:56:42;11.00;99.90
39033;DHT22;24794;51.982;5.878;2023-04-29T03:57:42;11.00;99.90
39033;DHT22;24794;51.982;5.878;2023-04-29T03:58:43;11.00;99.90
39033;DHT22;24794;51.982;5.878;2023-04-29T03:59:44;11.00;99.90
39033;DHT22;24794;51.982;5.878;2023-04-29T04:00:49;11.00;99.90
39033;DHT22;24794;51.982;5.878;2023-04-29T04:01:49;11.00;99.90
39033;DHT22;24794;51.982;5.878;2023-04-29T04:02:51;10.90;99.90
39033;DHT22;24794;51.982;5.878;2023-04-29T04:03:51;10.90;99.90
39033;DHT22;24794;51.982;5.878;2023-04-29T04:04:52;10.90;99.90
39033;DHT22;24794;51.982;5.878;2023-04-29T04:05:54;10.90;99.90
39033;DHT22;24794;51.982;5.878;2023-04-29T04:06:55;10.90;99.90
39033;DHT22;24794;51.982;5.878;2023-04-29T04:07:56;11.00;99.90
39033;DHT22;24794;51.982;5.878;2023-04-29T04:08:56;10.90;99.90
39033;DHT22;24794;51.982;5.878;2023-04-29T04:09:57;11.00;99.90
39033;DHT22;24794;51.982;5.878;2023-04-29T04:10:57;11.00;99.90
39033;DHT22;24794;51.982;5.878;2023-04-29T04:12:02;11.00;99.90
39033;DHT22;24794;51.982;5.878;2023-04-29T04:13:03;11.00;99.90
39033;DHT22;24794;51.982;5.878;2023-04-29T04:14:03;11.00;99.90
39033;DHT22;24794;51.982;5.878;2023-04-29T04:15:05;11.00;99.90
39033;DHT22;24794;51.982;5.878;2023-04-29T04:16:05;11.00;99.90
39033;DHT22;24794;51.982;5.878;2023-04-29T04:17:06;11.00;99.90
39033;DHT22;24794;51.982;5.878;2023-04-29T04:18:07;11.00;99.90
39033;DHT22;24794;51.982;5.878;2023-04-29T04:19:08;11.00;99.90
39033;DHT22;24794;51.982;5.878;2023-04-29T04:20:09;11.00;99.90
39033;DHT22;24794;51.982;5.878;2023-04-29T04:21:10;11.00;99.90
39033;DHT22;24794;51.982;5.878;2023-04-29T04:22:11;11.00;99.90
39033;DHT22;24794;51.982;5.878;2023-04-29T04:23:12;10.90;99.90
39033;DHT22;24794;51.982;5.878;2023-04-29T04:24:13;10.90;99.90
39033;DHT22;24794;51.982;5.878;2023-04-29T04:25:13;10.90;99.90
39033;DHT22;24794;51.982;5.878;2023-04-29T04:26:14;10.90;99.90
39033;DHT22;24794;51.982;5.878;2023-04-29T04:27:14;10.90;99.90
39033;DHT22;24794;51.982;5.878;2023-04-29T04:28:15;10.90;99.90
39033;DHT22;24794;51.982;5.878;2023-04-29T04:29:15;10.90;99.90
39033;DHT22;24794;51.982;5.878;2023-04-29T04:30:16;10.90;99.90
39033;DHT22;24794;51.982;5.878;2023-04-29T04:31:16;10.90;99.90
39033;DHT22;24794;51.982;5.878;2023-04-29T04:32:17;10.90;99.90
39033;DHT22;24794;51.982;5.878;2023-04-29T04:33:18;10.90;99.90
39033;DHT22;24794;51.982;5.878;2023-04-29T04:34:18;10.90;99.90
39033;DHT22;24794;51.982;5.878;2023-04-29T04:35:19;10.80;99.90
39033;DHT22;24794;51.982;5.878;2023-04-29T04:36:19;10.80;99.90
39033;DHT22;24794;51.982;5.878;2023-04-29T04:37:20;10.90;99.90
39033;DHT22;24794;51.982;5.878;2023-04-29T04:38:21;10.90;99.90
39033;DHT22;24794;51.982;5.878;2023-04-29T04:39:24;10.90;99.90
39033;DHT22;24794;51.982;5.878;2023-04-29T04:40:25;10.90;99.90
39033;DHT22;24794;51.982;5.878;2023-04-29T04:41:27;10.90;99.90
39033;DHT22;24794;51.982;5.878;2023-04-29T04:42:30;10.90;99.90
39033;DHT22;24794;51.982;5.878;2023-04-29T04:43:31;10.90;99.90
39033;DHT22;24794;51.982;5.878;2023-04-29T04:44:31;10.90;99.90
39033;DHT22;24794;51.982;5.878;2023-04-29T04:45:32;10.90;99.90
39033;DHT22;24794;51.982;5.878;2023-04-29T04:46:33;10.90;99.90
39033;DHT22;24794;51.982;5.878;2023-04-29T04:47:34;10.90;99.90
39033;DHT22;24794;51.982;5.878;2023-04-29T04:48:35;10.90;99.90
39033;DHT22;24794;51.982;5.878;2023-04-29T04:49:36;10.90;99.90
39033;DHT22;24794;51.982;5.878;2023-04-29T04:50:36;10.90;99.90
39033;DHT22;24794;51.982;5.878;2023-04-29T04:51:37;10.90;99.90
39033;DHT22;24794;51.982;5.878;2023-04-29T04:52:37;10.90;99.90
39033;DHT22;24794;51.982;5.878;2023-04-29T04:53:39;10.90;99.90
39033;DHT22;24794;51.982;5.878;2023-04-29T04:54:40;11.00;99.90
39033;DHT22;24794;51.982;5.878;2023-04-29T04:55:40;11.00;99.90
39033;DHT22;24794;51.982;5.878;2023-04-29T04:56:41;11.00;99.90
39033;DHT22;24794;51.982;5.878;2023-04-29T04:57:41;11.00;99.90
39033;DHT22;24794;51.982;5.878;2023-04-29T04:58:42;11.00;99.90
39033;DHT22;24794;51.982;5.878;2023-04-29T04:59:43;11.00;99.90
39033;DHT22;24794;51.982;5.878;2023-04-29T05:00:44;11.00;99.90
39033;DHT22;24794;51.982;5.878;2023-04-29T05:01:45;11.00;99.90
39033;DHT22;24794;51.982;5.878;2023-04-29T05:02:45;11.00;99.90
39033;DHT22;24794;51.982;5.878;2023-04-29T05:03:46;11.00;99.90
39033;DHT22;24794;51.982;5.878;2023-04-29T05:04:47;11.00;99.90
39033;DHT22;24794;51.982;5.878;2023-04-29T05:05:54;11.00;99.90
39033;DHT22;24794;51.982;5.878;2023-04-29T05:06:55;11.00;99.90
39033;DHT22;24794;51.982;5.878;2023-04-29T05:07:56;11.00;99.90
39033;DHT22;24794;51.982;5.878;2023-04-29T05:08:56;11.00;99.90
39033;DHT22;24794;51.982;5.878;2023-04-29T05:09:57;11.00;99.90
39033;DHT22;24794;51.982;5.878;2023-04-29T05:10:57;11.00;99.90
39033;DHT22;24794;51.982;5.878;2023-04-29T05:11:58;11.00;99.90
39033;DHT22;24794;51.982;5.878;2023-04-29T05:12:58;11.00;99.90
39033;DHT22;24794;51.982;5.878;2023-04-29T05:13:59;11.00;99.90
39033;DHT22;24794;51.982;5.878;2023-04-29T05:15:01;11.00;99.90
39033;DHT22;24794;51.982;5.878;2023-04-29T05:16:02;10.90;99.90
39033;DHT22;24794;51.982;5.878;2023-04-29T05:17:03;10.90;99.90
39033;DHT22;24794;51.982;5.878;2023-04-29T05:18:04;10.90;99.90
39033;DHT22;24794;51.982;5.878;2023-04-29T05:19:05;10.90;99.90
39033;DHT22;24794;51.982;5.878;2023-04-29T05:20:06;10.90;99.90
39033;DHT22;24794;51.982;5.878;2023-04-29T05:21:06;10.90;99.90
39033;DHT22;24794;51.982;5.878;2023-04-29T05:22:07;11.00;99.90
39033;DHT22;24794;51.982;5.878;2023-04-29T05:23:07;10.90;99.90
39033;DHT22;24794;51.982;5.878;2023-04-29T05:24:09;11.00;99.90
39033;DHT22;24794;51.982;5.878;2023-04-29T05:25:09;11.00;99.90
39033;DHT22;24794;51.982;5.878;2023-04-29T05:26:10;11.00;99.90
39033;DHT22;24794;51.982;5.878;2023-04-29T05:27:10;11.00;99.90
39033;DHT22;24794;51.982;5.878;2023-04-29T05:28:11;11.10;99.90
39033;DHT22;24794;51.982;5.878;2023-04-29T05:29:11;11.00;99.90
39033;DHT22;24794;51.982;5.878;2023-04-29T05:30:12;11.10;99.90
39033;DHT22;24794;51.982;5.878;2023-04-29T05:31:13;11.10;99.90
39033;DHT22;24794;51.982;5.878;2023-04-29T05:32:14;11.10;99.90
39033;DHT22;24794;51.982;5.878;2023-04-29T05:33:14;11.10;99.90
39033;DHT22;24794;51.982;5.878;2023-04-29T05:34:15;11.10;99.90
39033;DHT22;24794;51.982;5.878;2023-04-29T05:35:15;11.10;99.90
39033;DHT22;24794;51.982;5.878;2023-04-29T05:36:16;11.10;99.90
39033;DHT22;24794;51.982;5.878;2023-04-29T05:37:17;11.10;99.90
39033;DHT22;24794;51.982;5.878;2023-04-29T05:38:17;11.20;99.90
39033;DHT22;24794;51.982;5.878;2023-04-29T05:39:18;11.20;99.90
39033;DHT22;24794;51.982;5.878;2023-04-29T05:40:18;11.20;99.90
39033;DHT22;24794;51.982;5.878;2023-04-29T05:41:19;11.20;99.90
39033;DHT22;24794;51.982;5.878;2023-04-29T05:42:20;11.20;99.90
39033;DHT22;24794;51.982;5.878;2023-04-29T05:43:21;11.20;99.90
39033;DHT22;24794;51.982;5.878;2023-04-29T05:44:21;11.20;99.90
39033;DHT22;24794;51.982;5.878;2023-04-29T05:45:22;11.20;99.90
39033;DHT22;24794;51.982;5.878;2023-04-29T05:46:22;11.20;99.90
39033;DHT22;24794;51.982;5.878;2023-04-29T05:47:23;11.20;99.90
39033;DHT22;24794;51.982;5.878;2023-04-29T05:48:23;11.20;99.90
39033;DHT22;24794;51.982;5.878;2023-04-29T05:49:24;11.20;99.90
39033;DHT22;24794;51.982;5.878;2023-04-29T05:50:25;11.20;99.90
39033;DHT22;24794;51.982;5.878;2023-04-29T05:51:25;11.20;99.90
39033;DHT22;24794;51.982;5.878;2023-04-29T05:52:27;11.20;99.90
39033;DHT22;24794;51.982;5.878;2023-04-29T05:53:28;11.20;99.90
39033;DHT22;24794;51.982;5.878;2023-04-29T05:54:28;11.20;99.90
39033;DHT22;24794;51.982;5.878;2023-04-29T05:55:29;11.20;99.90
39033;DHT22;24794;51.982;5.878;2023-04-29T05:56:30;11.20;99.90
39033;DHT22;24794;51.982;5.878;2023-04-29T05:57:30;11.20;99.90
39033;DHT22;24794;51.982;5.878;2023-04-29T05:58:31;11.20;99.90
39033;DHT22;24794;51.982;5.878;2023-04-29T05:59:32;11.20;99.90
39033;DHT22;24794;51.982;5.878;2023-04-29T06:00:33;11.20;99.90
39033;DHT22;24794;51.982;5.878;2023-04-29T06:01:33;11.20;99.90
39033;DHT22;24794;51.982;5.878;2023-04-29T06:02:34;11.20;99.90
39033;DHT22;24794;51.982;5.878;2023-04-29T06:03:35;11.20;99.90
39033;DHT22;24794;51.982;5.878;2023-04-29T06:04:35;11.30;99.90
39033;DHT22;24794;51.982;5.878;2023-04-29T06:05:36;11.30;99.90
39033;DHT22;24794;51.982;5.878;2023-04-29T06:06:37;11.30;99.90
39033;DHT22;24794;51.982;5.878;2023-04-29T06:07:38;11.30;99.90
39033;DHT22;24794;51.982;5.878;2023-04-29T06:08:39;11.30;99.90
39033;DHT22;24794;51.982;5.878;2023-04-29T06:09:39;11.30;99.90
39033;DHT22;24794;51.982;5.878;2023-04-29T06:10:40;11.20;99.90
39033;DHT22;24794;51.982;5.878;2023-04-29T06:11:41;11.30;99.90
39033;DHT22;24794;51.982;5.878;2023-04-29T06:12:41;11.30;99.90
39033;DHT22;24794;51.982;5.878;2023-04-29T06:13:42;11.30;99.90
39033;DHT22;24794;51.982;5.878;2023-04-29T06:14:42;11.30;99.90
39033;DHT22;24794;51.982;5.878;2023-04-29T06:15:43;11.30;99.90
39033;DHT22;24794;51.982;5.878;2023-04-29T06:16:44;11.30;99.90
39033;DHT22;24794;51.982;5.878;2023-04-29T06:17:44;11.30;99.90
39033;DHT22;24794;51.982;5.878;2023-04-29T06:18:45;11.30;99.90
39033;DHT22;24794;51.982;5.878;2023-04-29T06:19:46;11.30;99.90
39033;DHT22;24794;51.982;5.878;2023-04-29T06:20:46;11.30;99.90
39033;DHT22;24794;51.982;5.878;2023-04-29T06:21:47;11.30;99.90
39033;DHT22;24794;51.982;5.878;2023-04-29T06:22:47;11.40;99.90
39033;DHT22;24794;51.982;5.878;2023-04-29T06:23:48;11.40;99.90
39033;DHT22;24794;51.982;5.878;2023-04-29T06:24:49;11.40;99.90
39033;DHT22;24794;51.982;5.878;2023-04-29T06:25:50;11.50;99.90
39033;DHT22;24794;51.982;5.878;2023-04-29T06:26:50;11.40;99.90
39033;DHT22;24794;51.982;5.878;2023-04-29T06:27:51;11.50;99.90
39033;DHT22;24794;51.982;5.878;2023-04-29T06:28:51;11.50;99.90
39033;DHT22;24794;51.982;5.878;2023-04-29T06:29:53;11.50;99.90
39033;DHT22;24794;51.982;5.878;2023-04-29T06:30:54;11.50;99.90
39033;DHT22;24794;51.982;5.878;2023-04-29T06:31:54;11.50;99.90
39033;DHT22;24794;51.982;5.878;2023-04-29T06:32:55;11.50;99.90
39033;DHT22;24794;51.982;5.878;2023-04-29T06:33:56;11.50;99.90
39033;DHT22;24794;51.982;5.878;2023-04-29T06:34:56;11.60;99.90
39033;DHT22;24794;51.982;5.878;2023-04-29T06:35:57;11.60;99.90
39033;DHT22;24794;51.982;5.878;2023-04-29T06:36:57;11.60;99.90
39033;DHT22;24794;51.982;5.878;2023-04-29T06:37:58;11.60;99.90